createdAt,value
2023-01-20T00:00:32.978Z,35.35
2023-01-20T00:03:02.571Z,36.97
2023-01-20T00:05:31.499Z,37.78
2023-01-20T00:08:03.023Z,37.42
2023-01-20T00:10:32.179Z,36.95
2023-01-20T00:13:01.460Z,33.90
2023-01-20T00:15:38.908Z,35.35
2023-01-20T00:20:51.169Z,36.47
2023-01-20T00:23:26.832Z,33.85
2023-01-20T00:25:56.463Z,33.58
2023-01-20T00:28:25.714Z,34.47
2023-01-20T00:30:55.026Z,33.67
2023-01-20T00:33:24.803Z,35.72
2023-01-20T00:35:54.689Z,35.30
2023-01-20T00:38:24.117Z,37.30
2023-01-20T00:40:56.887Z,35.25
2023-01-20T00:43:26.454Z,38.97
2023-01-20T00:45:55.500Z,43.85
2023-01-20T00:48:24.705Z,39.15
2023-01-20T00:50:54.233Z,35.20
2023-01-20T00:53:24.281Z,40.22
2023-01-20T00:55:53.179Z,40.95
2023-01-20T00:58:22.607Z,41.20
2023-01-20T01:00:52.287Z,34.72
2023-01-20T01:03:21.806Z,35.10
2023-01-20T01:05:50.820Z,40.03
2023-01-20T01:08:19.673Z,36.28
2023-01-20T01:10:51.414Z,38.00
2023-01-20T01:13:20.454Z,39.75
2023-01-20T01:15:50.443Z,35.90
2023-01-20T01:18:20.163Z,37.53
2023-01-20T01:20:49.105Z,38.05
2023-01-20T01:23:18.620Z,37.83
2023-01-20T01:25:48.125Z,39.78
2023-01-20T01:28:17.396Z,40.75
2023-01-20T01:30:51.047Z,34.50
2023-01-20T01:33:21.479Z,35.17
2023-01-20T01:36:13.722Z,35.80
2023-01-20T01:38:43.817Z,35.25
2023-01-20T01:41:14.217Z,34.08
2023-01-20T01:44:04.678Z,37.00
2023-01-20T01:46:34.331Z,34.10
2023-01-20T01:49:25.630Z,32.88
2023-01-20T01:52:10.167Z,34.17
2023-01-20T01:54:42.319Z,36.33
2023-01-20T01:57:12.418Z,34.58
2023-01-20T01:59:41.537Z,31.92
2023-01-20T02:02:11.084Z,33.17
2023-01-20T02:04:40.638Z,31.77
2023-01-20T02:07:17.572Z,31.88
2023-01-20T02:09:47.937Z,30.67
2023-01-20T02:12:18.949Z,30.13
2023-01-20T02:14:55.711Z,26.55
2023-01-20T02:17:35.095Z,27.88
2023-01-20T02:20:20.961Z,31.33
2023-01-20T02:22:56.650Z,29.17
2023-01-20T02:28:46.022Z,27.88
2023-01-20T02:31:45.565Z,28.83
2023-01-20T02:34:17.327Z,27.52
2023-01-20T02:37:01.499Z,29.80
2023-01-20T02:39:38.899Z,26.17
2023-01-20T02:42:48.004Z,29.25
2023-01-20T02:45:40.178Z,25.15
2023-01-20T02:48:21.933Z,26.13
2023-01-20T02:51:09.096Z,25.77
2023-01-20T02:53:55.634Z,28.85
2023-01-20T02:56:28.103Z,29.48
2023-01-20T02:59:03.218Z,26.30
2023-01-20T03:01:55.423Z,31.70
2023-01-20T03:04:28.565Z,28.50
2023-01-20T03:06:58.729Z,28.17
2023-01-20T03:09:33.894Z,29.25
2023-01-20T03:12:06.846Z,30.58
2023-01-20T03:14:36.099Z,30.23
2023-01-20T03:17:05.460Z,31.92
2023-01-20T03:19:35.205Z,34.55
2023-01-20T03:22:04.586Z,32.38
2023-01-20T03:24:33.555Z,28.65
2023-01-20T03:27:02.650Z,31.95
2023-01-20T03:29:33.767Z,28.25
2023-01-20T03:32:03.861Z,27.70
2023-01-20T03:34:34.220Z,28.38
2023-01-20T03:37:04.400Z,28.50
2023-01-20T03:39:34.035Z,27.17
2023-01-20T03:42:29.023Z,26.40
2023-01-20T03:45:09.201Z,24.45
2023-01-20T03:47:44.420Z,28.05
2023-01-20T03:50:19.545Z,24.87
2023-01-20T03:53:07.524Z,23.00
2023-01-20T03:55:53.612Z,24.17
2023-01-20T03:58:26.695Z,28.27
2023-01-20T04:00:58.451Z,24.35
2023-01-20T04:03:32.840Z,22.95
2023-01-20T04:06:02.725Z,26.48
2023-01-20T04:08:36.577Z,24.77
2023-01-20T04:11:07.333Z,23.83
2023-01-20T04:13:36.490Z,22.98
2023-01-20T04:16:07.404Z,22.35
2023-01-20T04:18:36.452Z,18.92
2023-01-20T04:21:05.874Z,26.27
2023-01-20T04:23:38.738Z,32.92
2023-01-20T04:26:07.948Z,31.02
2023-01-20T04:28:36.816Z,27.98
2023-01-20T04:31:06.552Z,30.23
2023-01-20T04:33:39.696Z,31.73
2023-01-20T04:36:09.513Z,30.80
2023-01-20T04:38:38.802Z,31.73
2023-01-20T04:41:08.542Z,32.47
2023-01-20T04:43:38.830Z,30.20
2023-01-20T04:46:07.963Z,35.90
2023-01-20T04:48:37.339Z,28.88
2023-01-20T04:51:07.656Z,30.25
2023-01-20T04:53:37.680Z,26.33
2023-01-20T04:56:13.073Z,27.50
2023-01-20T04:58:42.791Z,26.83
2023-01-20T05:01:12.233Z,28.67
2023-01-20T05:03:41.437Z,25.80
2023-01-20T05:06:13.652Z,26.50
2023-01-20T05:08:42.916Z,28.05
2023-01-20T05:11:12.279Z,27.77
2023-01-20T05:13:41.836Z,25.17
2023-01-20T05:16:11.705Z,28.23
2023-01-20T05:18:41.926Z,25.15
2023-01-20T05:21:11.480Z,25.38
2023-01-20T05:23:40.691Z,28.33
2023-01-20T05:26:12.490Z,24.83
2023-01-20T05:28:43.631Z,24.02
2023-01-20T05:31:14.337Z,27.10
2023-01-20T05:33:43.835Z,22.75
2023-01-20T05:36:14.117Z,28.42
2023-01-20T05:38:43.097Z,25.73
2023-01-20T05:41:13.198Z,29.10
2023-01-20T05:43:42.883Z,24.67
2023-01-20T05:46:12.423Z,29.38
2023-01-20T05:48:41.331Z,33.78
2023-01-20T05:51:10.597Z,28.25
2023-01-20T05:53:40.080Z,28.48
2023-01-20T05:56:09.299Z,21.95
2023-01-20T05:58:38.329Z,25.75
2023-01-20T06:01:12.255Z,29.67
2023-01-20T06:03:41.852Z,29.08
2023-01-20T06:06:15.205Z,34.78
2023-01-20T06:08:44.553Z,31.60
2023-01-20T06:11:15.173Z,37.20
2023-01-20T06:13:44.782Z,27.23
2023-01-20T06:16:13.702Z,26.05
2023-01-20T06:18:43.565Z,34.65
2023-01-20T06:21:13.220Z,27.23
2023-01-20T06:23:42.963Z,27.40
2023-01-20T06:26:15.267Z,34.95
2023-01-20T06:28:44.941Z,31.98
2023-01-20T06:31:16.405Z,32.28
2023-01-20T06:33:46.092Z,30.98
2023-01-20T06:36:18.215Z,33.70
2023-01-20T06:38:51.151Z,26.20
2023-01-20T06:41:21.379Z,27.60
2023-01-20T06:43:51.930Z,33.33
2023-01-20T06:46:21.536Z,27.35
2023-01-20T06:48:50.619Z,26.95
2023-01-20T06:51:22.431Z,26.08
2023-01-20T06:53:52.521Z,24.23
2023-01-20T06:56:22.337Z,23.83
2023-01-20T06:58:51.839Z,22.30
2023-01-20T07:01:26.939Z,20.80
2023-01-20T07:03:57.003Z,24.63
2023-01-20T07:06:33.332Z,21.88
2023-01-20T07:09:03.083Z,21.13
2023-01-20T07:11:32.177Z,20.55
2023-01-20T07:14:02.021Z,23.70
2023-01-20T07:16:32.065Z,19.27
2023-01-20T07:19:02.147Z,17.98
2023-01-20T07:21:31.657Z,22.25
2023-01-20T07:24:04.285Z,21.42
2023-01-20T07:26:33.622Z,18.35
2023-01-20T07:29:02.979Z,22.17
2023-01-20T07:31:32.771Z,18.63
2023-01-20T07:34:02.241Z,18.95
2023-01-20T07:36:32.391Z,17.88
2023-01-20T07:39:01.371Z,15.75
2023-01-20T07:41:30.410Z,16.27
2023-01-20T07:43:59.239Z,18.02
2023-01-20T07:46:28.769Z,22.48
2023-01-20T07:48:58.308Z,17.98
2023-01-20T07:51:27.494Z,20.20
2023-01-20T07:53:57.574Z,17.15
2023-01-20T07:56:28.567Z,15.77
2023-01-20T07:58:57.756Z,15.95
2023-01-20T08:01:29.061Z,19.42
2023-01-20T08:03:58.865Z,16.55
2023-01-20T08:06:28.815Z,18.88
2023-01-20T08:09:02.691Z,18.30
2023-01-20T08:11:35.347Z,16.67
2023-01-20T08:14:04.322Z,18.45
2023-01-20T08:16:33.806Z,17.10
2023-01-20T08:19:03.796Z,16.95
2023-01-20T08:21:33.356Z,20.88
2023-01-20T08:24:05.366Z,17.08
2023-01-20T08:26:35.414Z,18.15
2023-01-20T08:29:11.793Z,18.83
2023-01-20T08:31:42.240Z,15.48
2023-01-20T08:34:11.406Z,19.85
2023-01-20T08:36:41.243Z,19.23
2023-01-20T08:39:11.904Z,18.38
2023-01-20T08:41:43.135Z,19.35
2023-01-20T08:44:13.084Z,18.35
2023-01-20T08:46:42.806Z,17.90
2023-01-20T08:49:14.538Z,15.35
2023-01-20T08:51:44.728Z,16.15
2023-01-20T08:54:15.772Z,22.77
2023-01-20T08:56:44.774Z,15.98
2023-01-20T08:59:13.840Z,17.98
2023-01-20T09:01:44.339Z,19.50
2023-01-20T09:04:14.100Z,15.90
2023-01-20T09:06:45.583Z,18.63
2023-01-20T09:09:15.442Z,18.58
2023-01-20T09:11:52.117Z,13.27
2023-01-20T09:14:22.072Z,12.75
2023-01-20T09:16:51.443Z,16.08
2023-01-20T09:19:20.410Z,15.88
2023-01-20T09:21:49.744Z,13.90
2023-01-20T09:24:19.119Z,15.82
2023-01-20T09:26:49.328Z,12.80
2023-01-20T09:29:22.811Z,15.85
2023-01-20T09:31:59.271Z,12.95
2023-01-20T09:34:30.021Z,13.65
2023-01-20T09:37:21.434Z,14.05
2023-01-20T09:40:23.107Z,16.80
2023-01-20T09:43:42.822Z,16.20
2023-01-20T09:46:18.008Z,13.75
2023-01-20T09:49:18.482Z,18.75
2023-01-20T09:52:13.144Z,16.45
2023-01-20T09:54:48.588Z,18.60
2023-01-20T09:57:17.753Z,20.10
2023-01-20T09:59:51.988Z,15.25
2023-01-20T10:02:29.802Z,15.65
2023-01-20T10:05:01.439Z,18.98
2023-01-20T10:07:59.370Z,16.65
2023-01-20T10:10:59.945Z,17.08
2023-01-20T10:13:47.896Z,25.35
2023-01-20T10:16:38.884Z,19.02
2023-01-20T10:19:36.245Z,16.58
2023-01-20T10:22:08.966Z,18.27
2023-01-20T10:24:55.765Z,19.42
2023-01-20T10:27:27.177Z,19.20
2023-01-20T10:30:09.475Z,20.25
2023-01-20T10:32:43.507Z,19.42
2023-01-20T10:35:21.207Z,21.65
2023-01-20T10:37:51.166Z,21.80
2023-01-20T10:40:44.570Z,23.58
2023-01-20T10:43:18.437Z,26.20
2023-01-20T10:46:15.733Z,23.38
2023-01-20T10:48:56.209Z,19.30
2023-01-20T10:51:39.841Z,19.45
2023-01-20T10:54:34.811Z,23.02
2023-01-20T10:57:08.496Z,16.50
2023-01-20T10:59:58.257Z,22.95
2023-01-20T11:02:35.677Z,16.35
2023-01-20T11:05:28.110Z,20.05
2023-01-20T11:07:58.093Z,22.70
2023-01-20T11:10:30.764Z,19.15
2023-01-20T11:13:01.733Z,20.92
2023-01-20T11:15:36.603Z,19.05
2023-01-20T11:18:19.246Z,18.95
2023-01-20T11:21:05.076Z,17.63
2023-01-20T11:23:43.177Z,20.48
2023-01-20T11:26:32.444Z,16.65
2023-01-20T11:29:10.715Z,19.83
2023-01-20T11:31:50.932Z,21.23
2023-01-20T11:34:51.420Z,20.35
2023-01-20T11:37:22.994Z,23.00
2023-01-20T11:39:53.751Z,24.00
2023-01-20T11:42:28.485Z,28.13
2023-01-20T11:45:20.306Z,26.42
2023-01-20T11:48:13.574Z,37.20
2023-01-20T11:50:51.840Z,39.55
2023-01-20T11:53:28.272Z,51.17
2023-01-20T11:55:59.344Z,53.17
2023-01-20T11:58:33.773Z,60.22
2023-01-20T12:01:07.930Z,67.50
2023-01-20T12:03:46.859Z,77.53
2023-01-20T12:06:24.469Z,81.38
2023-01-20T12:09:13.453Z,84.30
2023-01-20T12:12:28.789Z,81.80
2023-01-20T12:15:07.024Z,87.57
2023-01-20T12:17:44.901Z,76.97
2023-01-20T12:20:54.481Z,85.82
2023-01-20T12:23:48.001Z,77.80
2023-01-20T12:26:21.434Z,79.80
2023-01-20T12:28:57.419Z,78.20
2023-01-20T12:31:27.033Z,73.85
2023-01-20T12:34:19.312Z,72.50
2023-01-20T12:37:19.163Z,75.63
2023-01-20T12:39:51.199Z,73.40
2023-01-20T12:42:43.022Z,75.20
2023-01-20T12:45:26.533Z,73.70
2023-01-20T12:48:17.201Z,69.03
2023-01-20T12:50:46.852Z,74.97
2023-01-20T12:53:43.071Z,71.90
2023-01-20T12:56:31.629Z,76.13
2023-01-20T12:59:06.945Z,77.82
2023-01-20T13:01:51.107Z,78.75
2023-01-20T13:05:02.787Z,85.97
2023-01-20T13:07:43.738Z,89.38
2023-01-20T13:10:31.661Z,94.22
2023-01-20T13:13:19.770Z,89.95
2023-01-20T13:16:14.999Z,93.53
2023-01-20T13:19:12.469Z,91.43
2023-01-20T13:21:43.375Z,81.80
2023-01-20T13:24:31.112Z,85.10
2023-01-20T13:27:01.447Z,88.07
2023-01-20T13:30:07.201Z,81.03
2023-01-20T13:32:46.288Z,86.82
2023-01-20T13:35:24.830Z,79.47
2023-01-20T13:37:58.495Z,82.93
2023-01-20T13:40:47.391Z,92.13
2023-01-20T13:43:27.227Z,89.65
2023-01-20T13:46:08.322Z,91.78
2023-01-20T13:48:38.611Z,99.28
2023-01-20T13:51:17.302Z,94.53
2023-01-20T13:53:46.746Z,98.95
2023-01-20T13:56:33.948Z,103.40
2023-01-20T13:59:03.673Z,101.50
2023-01-20T14:01:33.645Z,101.90
2023-01-20T14:04:07.488Z,99.18
2023-01-20T14:06:37.142Z,108.90
2023-01-20T14:09:11.494Z,103.60
2023-01-20T14:11:40.825Z,102.40
2023-01-20T14:14:22.202Z,99.90
2023-01-20T14:16:58.495Z,100.40
2023-01-20T14:19:33.434Z,100.95
2023-01-20T14:22:05.187Z,101.82
2023-01-20T14:24:34.619Z,101.43
2023-01-20T14:27:28.793Z,97.40
2023-01-20T14:30:00.328Z,95.95
2023-01-20T14:32:33.416Z,88.85
2023-01-20T14:35:03.180Z,89.25
2023-01-20T14:37:36.883Z,94.88
2023-01-20T14:40:21.205Z,90.18
2023-01-20T14:43:18.954Z,90.68
2023-01-20T14:45:55.354Z,85.07
2023-01-20T14:51:06.526Z,93.45
2023-01-20T14:53:35.996Z,89.07
2023-01-20T14:56:09.273Z,85.60
2023-01-20T14:58:43.935Z,91.53
2023-01-20T15:01:27.919Z,90.70
2023-01-20T15:04:03.073Z,93.55
2023-01-20T15:06:32.338Z,88.28
2023-01-20T15:09:07.198Z,89.63
2023-01-20T15:11:37.581Z,88.97
2023-01-20T15:14:10.656Z,86.88
2023-01-20T15:16:48.435Z,84.65
2023-01-20T15:19:20.718Z,82.88
2023-01-20T15:21:59.875Z,88.20
2023-01-20T15:24:35.668Z,76.78
2023-01-20T15:27:26.356Z,85.50
2023-01-20T15:30:09.629Z,87.25
2023-01-20T15:32:39.482Z,81.63
2023-01-20T15:35:11.903Z,81.53
2023-01-20T15:37:42.498Z,81.13
2023-01-20T15:40:16.530Z,84.57
2023-01-20T15:42:46.089Z,89.72
2023-01-20T15:45:16.567Z,81.57
2023-01-20T15:47:46.889Z,79.32
2023-01-20T15:50:23.642Z,85.43
2023-01-20T15:52:52.871Z,84.38
2023-01-20T15:55:23.274Z,76.03
2023-01-20T15:57:53.260Z,80.60
2023-01-20T16:00:24.265Z,77.18
2023-01-20T16:02:54.021Z,78.20
2023-01-20T16:05:23.797Z,71.60
2023-01-20T16:07:56.843Z,71.95
2023-01-20T16:10:26.627Z,76.50
2023-01-20T16:12:55.722Z,76.30
2023-01-20T16:15:25.230Z,71.80
2023-01-20T16:17:55.130Z,69.65
2023-01-20T16:20:25.638Z,70.40
2023-01-20T16:22:59.628Z,71.95
2023-01-20T16:25:28.784Z,71.78
2023-01-20T16:28:05.795Z,68.93
2023-01-20T16:30:35.343Z,68.65
2023-01-20T16:33:04.686Z,75.75
2023-01-20T16:35:34.478Z,66.25
2023-01-20T16:38:04.334Z,72.10
2023-01-20T16:40:33.275Z,75.68
2023-01-20T16:43:02.083Z,71.65
2023-01-20T16:45:32.142Z,75.80
2023-01-20T16:48:01.874Z,67.63
2023-01-20T16:50:37.853Z,72.25
2023-01-20T16:53:07.494Z,76.70
2023-01-20T16:55:36.454Z,69.60
2023-01-20T16:58:07.487Z,74.03
2023-01-20T17:00:37.876Z,74.28
2023-01-20T17:03:07.094Z,72.93
2023-01-20T17:05:36.644Z,76.63
2023-01-20T17:08:06.356Z,78.88
2023-01-20T17:10:35.574Z,84.28
2023-01-20T17:13:10.754Z,97.43
2023-01-20T17:15:43.216Z,100.93
2023-01-20T17:18:12.328Z,107.30
2023-01-20T17:20:43.386Z,118.22
2023-01-20T17:23:12.735Z,112.75
2023-01-20T17:25:41.696Z,122.47
2023-01-20T17:28:11.218Z,117.13
2023-01-20T17:30:40.519Z,112.13
2023-01-20T17:33:10.127Z,108.10
2023-01-20T17:35:39.546Z,108.75
2023-01-20T17:38:09.013Z,108.60
2023-01-20T17:40:38.358Z,102.07
2023-01-20T17:43:07.822Z,103.90
2023-01-20T17:45:37.046Z,98.20
2023-01-20T17:48:06.887Z,98.05
2023-01-20T17:50:40.504Z,93.95
2023-01-20T17:53:10.278Z,90.28
2023-01-20T17:55:39.518Z,90.03
2023-01-20T17:58:10.547Z,91.53
2023-01-20T18:00:39.670Z,88.68
2023-01-20T18:03:10.040Z,83.65
2023-01-20T18:05:42.272Z,90.03
2023-01-20T18:08:12.986Z,86.18
2023-01-20T18:10:43.918Z,83.30
2023-01-20T18:13:16.603Z,88.28
2023-01-20T18:15:45.866Z,87.03
2023-01-20T18:18:17.765Z,81.38
2023-01-20T18:20:47.409Z,89.18
2023-01-20T18:23:16.362Z,81.72
2023-01-20T18:25:47.073Z,85.45
2023-01-20T18:28:16.713Z,83.88
2023-01-20T18:30:45.682Z,82.68
2023-01-20T18:33:26.644Z,79.07
2023-01-20T18:35:56.357Z,80.82
2023-01-20T18:38:28.399Z,76.35
2023-01-20T18:40:58.031Z,74.63
2023-01-20T18:43:30.559Z,75.82
2023-01-20T18:46:05.949Z,78.70
2023-01-20T18:48:38.622Z,73.65
2023-01-20T18:51:08.464Z,69.43
2023-01-20T18:53:42.680Z,72.82
2023-01-20T18:56:13.707Z,73.60
2023-01-20T18:58:48.315Z,69.95
2023-01-20T19:01:18.959Z,66.63
2023-01-20T19:03:49.370Z,66.20
2023-01-20T19:06:20.110Z,65.65
2023-01-20T19:08:49.363Z,65.80
2023-01-20T19:11:23.265Z,67.97
2023-01-20T19:13:54.527Z,65.93
2023-01-20T19:16:30.883Z,60.22
2023-01-20T19:19:03.679Z,62.88
2023-01-20T19:21:34.285Z,65.55
2023-01-20T19:24:06.398Z,58.53
2023-01-20T19:26:36.765Z,65.55
2023-01-20T19:29:17.612Z,64.22
2023-01-20T19:31:46.875Z,57.97
2023-01-20T19:34:18.378Z,57.10
2023-01-20T19:36:47.956Z,55.47
2023-01-20T19:39:17.384Z,60.53
2023-01-20T19:41:47.548Z,57.72
2023-01-20T19:44:19.217Z,57.42
2023-01-20T19:46:48.291Z,54.72
2023-01-20T19:49:18.001Z,51.58
2023-01-20T19:51:47.571Z,56.90
2023-01-20T19:54:16.734Z,55.55
2023-01-20T19:56:46.530Z,53.83
2023-01-20T19:59:21.709Z,47.90
2023-01-20T20:01:51.184Z,53.42
2023-01-20T20:04:22.999Z,49.20
2023-01-20T20:06:55.508Z,50.53
2023-01-20T20:09:27.238Z,47.08
2023-01-20T20:12:02.452Z,50.05
2023-01-20T20:14:37.929Z,46.97
2023-01-20T20:17:18.087Z,44.33
2023-01-20T20:19:50.288Z,51.22
2023-01-20T20:22:20.033Z,42.70
2023-01-20T20:24:49.653Z,45.53
2023-01-20T20:27:25.842Z,42.55
2023-01-20T20:30:01.507Z,40.40
2023-01-20T20:32:31.068Z,39.85
2023-01-20T20:35:06.988Z,40.50
2023-01-20T20:40:06.763Z,38.40
2023-01-20T20:42:35.802Z,39.90
2023-01-20T20:45:05.631Z,40.65
2023-01-20T20:47:34.475Z,38.80
2023-01-20T20:50:03.763Z,41.50
2023-01-20T20:52:36.616Z,41.78
2023-01-20T20:55:06.994Z,41.75
2023-01-20T20:57:43.304Z,40.15
2023-01-20T21:00:13.682Z,38.03
2023-01-20T21:02:43.975Z,39.45
2023-01-20T21:05:13.218Z,39.83
2023-01-20T21:07:43.895Z,39.60
2023-01-20T21:10:17.581Z,37.42
2023-01-20T21:12:47.805Z,38.00
2023-01-20T21:15:18.599Z,39.60
2023-01-20T21:17:47.425Z,33.55
2023-01-20T21:20:22.279Z,37.63
2023-01-20T21:22:51.436Z,33.40
2023-01-20T21:25:24.599Z,35.97
2023-01-20T21:27:55.006Z,41.35
2023-01-20T21:30:24.569Z,37.42
2023-01-20T21:32:54.800Z,33.80
2023-01-20T21:35:24.279Z,35.47
2023-01-20T21:37:53.907Z,32.03
2023-01-20T21:40:27.620Z,31.60
2023-01-20T21:43:17.154Z,34.15
2023-01-20T21:45:56.865Z,37.75
2023-01-20T21:51:35.505Z,35.47
2023-01-20T21:54:04.555Z,36.92
2023-01-20T21:56:36.635Z,35.90
2023-01-20T21:59:06.472Z,31.60
2023-01-20T22:01:39.566Z,31.88
2023-01-20T22:04:09.371Z,33.58
2023-01-20T22:06:40.095Z,35.67
2023-01-20T22:09:10.252Z,32.80
2023-01-20T22:11:39.456Z,34.33
2023-01-20T22:14:09.990Z,32.75
2023-01-20T22:16:39.620Z,37.17
2023-01-20T22:19:09.080Z,31.42
2023-01-20T22:21:39.760Z,35.88
2023-01-20T22:24:08.847Z,35.22
2023-01-20T22:26:38.433Z,30.85
2023-01-20T22:29:10.762Z,34.80
2023-01-20T22:31:40.231Z,30.35
2023-01-20T22:34:11.053Z,32.90
2023-01-20T22:36:40.875Z,33.83
2023-01-20T22:39:11.101Z,32.55
2023-01-20T22:41:47.129Z,30.85
2023-01-20T22:44:16.414Z,29.17
2023-01-20T22:46:45.859Z,30.95
2023-01-20T22:49:21.806Z,31.67
2023-01-20T22:51:58.152Z,27.98
2023-01-20T22:54:27.216Z,30.23
2023-01-20T22:56:56.519Z,26.52
2023-01-20T22:59:27.711Z,27.83
2023-01-20T23:01:56.868Z,29.85
2023-01-20T23:04:26.266Z,33.47
2023-01-20T23:06:57.063Z,31.75
2023-01-20T23:09:26.118Z,29.27
2023-01-20T23:11:55.425Z,27.13
2023-01-20T23:14:47.677Z,30.85
2023-01-20T23:17:16.903Z,31.83
2023-01-20T23:19:45.819Z,30.25
2023-01-20T23:22:16.618Z,29.38
2023-01-20T23:24:45.615Z,30.13
2023-01-20T23:27:15.703Z,30.73
2023-01-20T23:29:47.989Z,30.70
2023-01-20T23:32:17.563Z,30.30
2023-01-20T23:34:46.873Z,34.08
2023-01-20T23:37:16.144Z,33.05
2023-01-20T23:39:45.412Z,31.52
2023-01-20T23:42:14.691Z,33.90
2023-01-20T23:44:44.229Z,35.58
2023-01-20T23:47:14.871Z,34.50
2023-01-20T23:49:44.445Z,38.38
2023-01-20T23:52:14.642Z,40.28
2023-01-20T23:54:44.169Z,32.38
2023-01-20T23:57:16.369Z,36.67
2023-01-20T23:59:45.806Z,33.65
